Time;durP1;ratioP1;P1;durP2;ratioP2;P2;SDS_P1;SDS_P2;PMS_P1;PMS_P2;Temp;Humidity;BMP_temperature;BMP_pressure;BME280_temperature;BME280_humidity;BME280_pressure;Samples;Min_cycle;Max_cycle;Signal;HPM_P1;HPM_P2
2023/08/12 00:00:20;;;;;;;6.80;5.60;;;19.40;99.90;;;;;;464849;251;29013;-80
2023/08/12 00:02:21;;;;;;;5.43;4.93;;;19.40;99.90;;;;;;464887;254;28978;-79
2023/08/12 00:04:22;;;;;;;5.50;4.60;;;19.40;99.90;;;;;;464856;254;29056;-80
2023/08/12 00:06:24;;;;;;;5.33;4.03;;;19.40;99.90;;;;;;464887;254;28919;-79
2023/08/12 00:08:25;;;;;;;4.87;4.17;;;19.40;99.90;;;;;;464855;254;29514;-79
2023/08/12 00:10:26;;;;;;;5.00;4.53;;;19.40;99.90;;;;;;464855;254;30130;-80
2023/08/12 00:12:27;;;;;;;4.90;4.40;;;19.30;99.90;;;;;;464895;254;29474;-80
2023/08/12 00:14:28;;;;;;;5.53;4.80;;;19.20;99.90;;;;;;464869;255;29433;-79
2023/08/12 00:16:30;;;;;;;4.97;4.43;;;19.10;99.90;;;;;;464894;254;28946;-80
2023/08/12 00:18:36;;;;;;;5.50;4.50;;;19.10;99.90;;;;;;464852;254;29066;-79
2023/08/12 00:20:32;;;;;;;9.33;4.10;;;19.10;99.90;;;;;;464833;252;28957;-80
2023/08/12 00:22:33;;;;;;;4.63;4.13;;;19.20;99.90;;;;;;464856;254;28905;-79
2023/08/12 00:24:35;;;;;;;5.53;4.47;;;19.20;99.90;;;;;;464896;254;28963;-80
2023/08/12 00:26:36;;;;;;;4.73;4.20;;;19.20;99.90;;;;;;464879;254;28936;-80
2023/08/12 00:28:37;;;;;;;5.17;4.57;;;19.20;99.90;;;;;;464847;254;28990;-80
2023/08/12 00:30:38;;;;;;;5.13;4.63;;;19.20;99.90;;;;;;464867;255;28983;-80
2023/08/12 00:32:40;;;;;;;5.00;4.50;;;19.20;99.90;;;;;;464889;254;29494;-79
2023/08/12 00:34:41;;;;;;;8.27;4.40;;;19.10;99.90;;;;;;464881;254;29463;-80
2023/08/12 00:36:42;;;;;;;4.17;3.77;;;19.10;99.90;;;;;;464850;254;29473;-79
2023/08/12 00:38:43;;;;;;;5.03;4.30;;;19.10;99.90;;;;;;464858;256;29597;-80
2023/08/12 00:40:45;;;;;;;5.00;4.50;;;19.20;99.90;;;;;;464881;255;28953;-79
2023/08/12 00:42:46;;;;;;;5.50;4.60;;;19.20;99.90;;;;;;464893;254;28923;-80
2023/08/12 00:44:47;;;;;;;7.20;4.13;;;19.20;99.90;;;;;;464934;254;29065;-80
2023/08/12 00:46:48;;;;;;;5.10;4.60;;;19.20;99.90;;;;;;464909;254;29005;-80
2023/08/12 00:48:50;;;;;;;4.20;3.77;;;19.20;99.90;;;;;;464904;254;28989;-80
2023/08/12 00:50:52;;;;;;;5.30;4.53;;;19.30;99.90;;;;;;464918;254;29033;-80
2023/08/12 00:52:52;;;;;;;4.37;3.97;;;19.30;99.90;;;;;;464913;254;28926;-80
2023/08/12 00:54:53;;;;;;;7.70;4.43;;;19.30;99.90;;;;;;464924;254;29039;-80
2023/08/12 00:56:55;;;;;;;5.63;3.70;;;19.30;99.90;;;;;;464894;254;28915;-79
2023/08/12 00:58:56;;;;;;;4.40;4.00;;;19.30;99.90;;;;;;464858;254;29423;-80
2023/08/12 01:00:57;;;;;;;5.83;4.20;;;19.30;99.90;;;;;;464932;254;29550;-80
2023/08/12 01:02:58;;;;;;;4.20;3.80;;;19.30;99.90;;;;;;464895;254;29477;-80
2023/08/12 01:05:00;;;;;;;6.17;3.93;;;19.30;99.90;;;;;;464902;254;28932;-80
2023/08/12 01:07:01;;;;;;;7.73;4.53;;;19.30;99.90;;;;;;464859;254;29060;-80
2023/08/12 01:09:05;;;;;;;6.00;4.33;;;19.10;99.90;;;;;;464858;254;29022;-79
2023/08/12 01:11:04;;;;;;;6.13;4.17;;;19.00;99.90;;;;;;464857;254;28955;-80
2023/08/12 01:13:05;;;;;;;4.70;4.27;;;18.90;99.90;;;;;;464877;254;28930;-79
2023/08/12 01:15:06;;;;;;;7.00;4.87;;;18.90;99.90;;;;;;464891;254;28962;-80
2023/08/12 01:17:07;;;;;;;5.07;4.57;;;18.90;99.90;;;;;;464876;254;28937;-79
2023/08/12 01:19:09;;;;;;;6.63;4.70;;;19.00;99.90;;;;;;464882;254;28950;-80
2023/08/12 01:21:12;;;;;;;6.00;4.53;;;19.00;99.90;;;;;;464909;254;29046;-80
2023/08/12 01:23:14;;;;;;;4.50;4.10;;;19.10;99.90;;;;;;464849;254;29534;-80
2023/08/12 01:25:15;;;;;;;8.47;4.70;;;19.10;99.90;;;;;;464886;255;28916;-79
2023/08/12 01:27:16;;;;;;;6.20;4.93;;;19.20;99.90;;;;;;464886;254;28964;-79
2023/08/12 01:29:18;;;;;;;5.13;4.63;;;19.30;99.90;;;;;;464896;254;29348;-79
2023/08/12 01:31:19;;;;;;;6.00;4.60;;;19.40;99.90;;;;;;464862;254;29425;-80
2023/08/12 01:33:20;;;;;;;5.70;5.20;;;19.50;99.90;;;;;;464895;253;29534;-79
2023/08/12 01:35:21;;;;;;;5.70;4.47;;;19.60;99.90;;;;;;464880;254;28980;-80
2023/08/12 01:37:23;;;;;;;6.00;4.33;;;19.70;99.90;;;;;;464865;254;28966;-80
2023/08/12 01:39:24;;;;;;;5.30;4.40;;;19.70;99.90;;;;;;464869;254;28961;-80
2023/08/12 01:41:25;;;;;;;4.40;4.00;;;19.70;99.90;;;;;;464908;254;28939;-79
2023/08/12 01:43:26;;;;;;;4.37;3.97;;;19.70;99.90;;;;;;464894;254;29069;-80
2023/08/12 01:45:28;;;;;;;5.33;4.07;;;19.70;99.90;;;;;;464857;254;29028;-80
2023/08/12 01:47:29;;;;;;;8.90;4.27;;;19.70;99.90;;;;;;464861;254;29039;-80
2023/08/12 01:49:30;;;;;;;6.30;4.20;;;19.80;99.90;;;;;;464881;254;28927;-80
2023/08/12 01:51:31;;;;;;;5.50;4.50;;;19.80;99.90;;;;;;464860;254;28981;-79
2023/08/12 01:53:33;;;;;;;4.80;4.10;;;19.80;99.90;;;;;;464910;251;29468;-80
2023/08/12 01:55:34;;;;;;;5.67;4.20;;;19.80;99.90;;;;;;464883;254;29371;-80
2023/08/12 01:57:35;;;;;;;5.13;4.63;;;19.80;99.90;;;;;;464885;254;29420;-79
2023/08/12 01:59:36;;;;;;;6.77;5.10;;;19.80;99.90;;;;;;464856;254;29390;-79
2023/08/12 02:01:38;;;;;;;9.23;4.33;;;19.80;99.90;;;;;;464861;254;29025;-79
2023/08/12 02:03:39;;;;;;;4.93;4.47;;;19.80;99.90;;;;;;464856;254;29084;-80
2023/08/12 02:05:41;;;;;;;6.00;4.37;;;19.80;99.90;;;;;;464824;254;29006;-80
2023/08/12 02:07:41;;;;;;;4.30;3.90;;;19.80;99.90;;;;;;464829;254;28967;-80
2023/08/12 02:09:43;;;;;;;4.70;4.30;;;19.80;99.90;;;;;;464824;256;28906;-80
2023/08/12 02:11:44;;;;;;;4.60;4.10;;;19.70;99.90;;;;;;464875;254;28955;-80
2023/08/12 02:13:45;;;;;;;7.60;4.97;;;19.80;99.90;;;;;;464891;254;29322;-79
2023/08/12 02:15:46;;;;;;;5.90;4.23;;;19.70;99.90;;;;;;464860;254;28911;-79
2023/08/12 02:17:48;;;;;;;5.00;4.50;;;19.70;99.90;;;;;;464874;254;29495;-79
2023/08/12 02:19:49;;;;;;;6.07;4.90;;;19.70;99.90;;;;;;464889;254;29389;-80
2023/08/12 02:21:50;;;;;;;7.30;4.60;;;19.60;99.90;;;;;;464900;254;29488;-79
2023/08/12 02:23:51;;;;;;;6.47;4.80;;;19.60;99.90;;;;;;464918;254;29439;-80
2023/08/12 02:25:54;;;;;;;7.90;4.90;;;19.60;99.90;;;;;;464906;255;28911;-79
2023/08/12 02:27:54;;;;;;;5.33;4.80;;;19.50;99.90;;;;;;464871;254;28944;-80
2023/08/12 02:29:55;;;;;;;11.77;5.90;;;19.40;99.90;;;;;;464923;254;28926;-80
2023/08/12 02:31:56;;;;;;;6.13;5.20;;;19.30;99.90;;;;;;464914;255;28937;-79
2023/08/12 02:33:58;;;;;;;12.23;5.63;;;19.30;99.90;;;;;;464927;254;28979;-80
2023/08/12 02:35:59;;;;;;;9.13;6.03;;;19.40;99.90;;;;;;464879;254;28942;-80
2023/08/12 02:38:00;;;;;;;5.87;4.90;;;19.40;99.90;;;;;;464891;254;28980;-79
2023/08/12 02:40:04;;;;;;;6.43;5.77;;;19.40;99.90;;;;;;464887;254;28965;-79
2023/08/12 02:42:03;;;;;;;6.17;5.10;;;19.40;99.90;;;;;;464870;254;29365;-80
2023/08/12 02:44:04;;;;;;;6.03;5.03;;;19.40;99.90;;;;;;464899;254;29515;-80
2023/08/12 02:46:05;;;;;;;5.67;5.17;;;19.40;99.90;;;;;;464899;252;29434;-79
2023/08/12 02:48:06;;;;;;;8.23;4.90;;;19.30;99.90;;;;;;464831;256;28939;-79
2023/08/12 02:50:08;;;;;;;8.47;4.90;;;19.30;99.90;;;;;;464879;254;28947;-79
2023/08/12 02:52:09;;;;;;;6.67;5.53;;;19.30;99.90;;;;;;464897;252;28915;-79
2023/08/12 02:54:10;;;;;;;7.90;4.50;;;19.20;99.90;;;;;;464887;254;28959;-80
2023/08/12 02:56:11;;;;;;;5.87;5.20;;;19.20;99.90;;;;;;464873;254;28950;-79
2023/08/12 02:58:13;;;;;;;6.00;5.07;;;19.20;99.90;;;;;;464861;254;28960;-80
2023/08/12 03:00:14;;;;;;;5.40;4.70;;;19.20;99.90;;;;;;464904;255;28969;-80
2023/08/12 03:02:16;;;;;;;7.17;6.17;;;19.10;99.90;;;;;;464907;254;28928;-79
2023/08/12 03:04:16;;;;;;;8.30;6.23;;;19.10;99.90;;;;;;464860;254;28989;-79
2023/08/12 03:06:18;;;;;;;9.00;6.57;;;19.00;99.90;;;;;;464870;254;29390;-80
2023/08/12 03:08:19;;;;;;;7.63;6.00;;;18.90;99.90;;;;;;464847;254;29495;-79
2023/08/12 03:10:20;;;;;;;6.33;5.73;;;18.90;99.90;;;;;;464905;254;29615;-80
2023/08/12 03:12:21;;;;;;;8.87;5.77;;;18.90;99.90;;;;;;464884;254;29442;-79
2023/08/12 03:14:23;;;;;;;6.17;5.57;;;18.90;99.90;;;;;;464903;254;28963;-80
2023/08/12 03:16:24;;;;;;;5.40;4.90;;;19.00;99.90;;;;;;464897;252;29002;-80
2023/08/12 03:18:25;;;;;;;5.80;5.20;;;19.00;99.90;;;;;;464860;254;28974;-79
2023/08/12 03:20:26;;;;;;;6.23;5.40;;;19.00;99.90;;;;;;464868;252;28984;-79
2023/08/12 03:22:28;;;;;;;7.13;4.97;;;19.00;99.90;;;;;;464893;255;28937;-79
2023/08/12 03:24:29;;;;;;;7.07;5.10;;;19.00;99.90;;;;;;464881;254;29044;-79
2023/08/12 03:26:30;;;;;;;7.10;5.50;;;19.10;99.90;;;;;;464883;255;28929;-80
2023/08/12 03:28:31;;;;;;;5.63;4.90;;;19.10;99.90;;;;;;464852;254;29000;-79
2023/08/12 03:30:33;;;;;;;7.67;5.87;;;19.10;99.90;;;;;;464835;254;29527;-79
2023/08/12 03:32:34;;;;;;;7.20;4.97;;;19.10;99.90;;;;;;464854;255;29469;-78
2023/08/12 03:34:35;;;;;;;4.83;4.43;;;19.00;99.90;;;;;;464861;254;29431;-79
2023/08/12 03:36:36;;;;;;;6.10;5.30;;;19.00;99.90;;;;;;464885;254;29375;-79
2023/08/12 03:38:38;;;;;;;5.60;5.03;;;19.00;99.90;;;;;;464879;254;28952;-80
2023/08/12 03:40:39;;;;;;;5.63;5.13;;;18.90;99.90;;;;;;464944;253;28970;-79
2023/08/12 03:42:40;;;;;;;5.63;5.13;;;18.90;99.90;;;;;;464896;254;28925;-79
2023/08/12 03:44:41;;;;;;;5.27;4.77;;;18.90;99.90;;;;;;464899;254;28966;-80
2023/08/12 03:46:43;;;;;;;6.37;5.10;;;18.90;99.90;;;;;;464876;254;29014;-80
2023/08/12 03:48:44;;;;;;;6.87;6.17;;;18.90;99.90;;;;;;464852;254;28956;-79
2023/08/12 03:50:46;;;;;;;5.53;5.03;;;18.90;99.90;;;;;;464899;254;29071;-80
2023/08/12 03:52:46;;;;;;;7.00;5.60;;;18.90;99.90;;;;;;464906;254;28928;-78
2023/08/12 03:54:48;;;;;;;6.77;5.70;;;18.80;99.90;;;;;;464906;255;28948;-79
2023/08/12 03:56:49;;;;;;;6.63;5.40;;;18.90;99.90;;;;;;464890;254;29488;-80
2023/08/12 03:58:50;;;;;;;6.47;5.87;;;18.80;99.90;;;;;;464905;254;29369;-79
2023/08/12 04:00:51;;;;;;;5.57;5.00;;;18.80;99.90;;;;;;464934;254;29567;-79
2023/08/12 04:02:53;;;;;;;9.47;5.03;;;18.80;99.90;;;;;;464913;255;28909;-80
2023/08/12 04:04:54;;;;;;;6.43;5.10;;;18.80;99.90;;;;;;464913;254;28948;-80
2023/08/12 04:06:55;;;;;;;7.43;5.43;;;18.80;99.90;;;;;;464912;254;29020;-79
2023/08/12 04:08:56;;;;;;;7.17;4.63;;;18.90;99.90;;;;;;464938;254;28935;-80
2023/08/12 04:10:58;;;;;;;5.50;5.00;;;18.90;99.90;;;;;;464921;254;29036;-80
2023/08/12 04:12:59;;;;;;;5.53;5.03;;;18.90;99.90;;;;;;464940;254;28921;-79
2023/08/12 04:15:04;;;;;;;6.60;6.00;;;18.80;99.90;;;;;;464864;254;29063;-79
2023/08/12 04:17:01;;;;;;;5.50;4.97;;;18.70;99.90;;;;;;464864;254;29105;-80
2023/08/12 04:19:03;;;;;;;6.23;5.63;;;18.70;99.90;;;;;;464890;254;29041;-80
2023/08/12 04:21:04;;;;;;;6.67;5.90;;;18.70;99.90;;;;;;464909;254;29499;-79
2023/08/12 04:23:05;;;;;;;7.77;5.43;;;18.60;99.90;;;;;;464890;256;28915;-79
2023/08/12 04:25:07;;;;;;;8.30;5.50;;;18.60;99.90;;;;;;464899;254;29455;-79
2023/08/12 04:27:08;;;;;;;6.37;5.60;;;18.60;99.90;;;;;;464919;254;29575;-80
2023/08/12 04:29:09;;;;;;;6.77;5.50;;;18.60;99.90;;;;;;464724;255;29006;-80
2023/08/12 04:31:10;;;;;;;8.07;5.97;;;18.60;99.90;;;;;;464914;254;29014;-79
2023/08/12 04:33:11;;;;;;;5.70;5.20;;;18.60;99.90;;;;;;464917;254;28962;-79
2023/08/12 04:35:13;;;;;;;5.70;5.20;;;18.60;99.90;;;;;;464899;256;29011;-80
2023/08/12 04:37:14;;;;;;;5.90;5.40;;;18.60;99.90;;;;;;464955;254;28950;-80
2023/08/12 04:39:15;;;;;;;6.07;5.50;;;18.60;99.90;;;;;;464929;254;28926;-79
2023/08/12 04:41:18;;;;;;;5.87;5.30;;;18.60;99.90;;;;;;464910;254;28923;-80
2023/08/12 04:43:18;;;;;;;7.20;5.40;;;18.70;99.90;;;;;;464894;255;28996;-79
2023/08/12 04:45:19;;;;;;;6.70;5.40;;;18.70;99.90;;;;;;464885;254;29034;-80
2023/08/12 04:47:20;;;;;;;9.33;5.30;;;18.70;99.90;;;;;;464893;254;29508;-79
2023/08/12 04:49:23;;;;;;;5.77;5.27;;;18.70;99.90;;;;;;464884;254;29548;-80
2023/08/12 04:51:23;;;;;;;7.77;5.90;;;18.60;99.90;;;;;;464912;254;29516;-79
2023/08/12 04:53:24;;;;;;;8.80;5.57;;;18.60;99.90;;;;;;464886;254;28922;-79
2023/08/12 04:55:26;;;;;;;6.07;5.10;;;18.60;99.90;;;;;;464868;252;28961;-80
2023/08/12 04:57:26;;;;;;;5.67;5.10;;;18.60;99.90;;;;;;464898;254;28955;-80
2023/08/12 04:59:28;;;;;;;8.20;6.00;;;18.60;99.90;;;;;;464875;254;28924;-79
2023/08/12 05:01:29;;;;;;;5.53;5.03;;;18.60;99.90;;;;;;464878;254;28969;-79
2023/08/12 05:03:30;;;;;;;9.07;5.70;;;18.60;99.90;;;;;;464902;254;28914;-79
2023/08/12 05:05:31;;;;;;;7.40;5.07;;;18.60;99.90;;;;;;464903;254;29095;-79
2023/08/12 05:07:33;;;;;;;5.90;5.40;;;18.60;99.90;;;;;;464940;254;28979;-80
2023/08/12 05:09:34;;;;;;;5.70;5.10;;;18.60;99.90;;;;;;464892;255;29379;-79
2023/08/12 05:11:35;;;;;;;6.47;5.57;;;18.70;99.90;;;;;;464901;254;29392;-79
2023/08/12 05:13:36;;;;;;;6.33;5.73;;;18.80;99.90;;;;;;464884;254;29388;-79
2023/08/12 05:15:38;;;;;;;9.97;5.70;;;19.00;99.90;;;;;;464884;252;29432;-80
2023/08/12 05:17:39;;;;;;;6.03;5.50;;;19.10;99.90;;;;;;464926;254;29073;-80
2023/08/12 05:19:40;;;;;;;6.60;6.00;;;19.20;99.90;;;;;;464906;254;29097;-80
2023/08/12 05:21:42;;;;;;;6.70;5.13;;;19.30;99.90;;;;;;464888;254;29060;-80
2023/08/12 05:23:43;;;;;;;6.10;5.53;;;19.40;99.90;;;;;;464891;254;28926;-79
2023/08/12 05:25:44;;;;;;;7.47;5.80;;;19.40;99.90;;;;;;464877;254;28962;-80
2023/08/12 05:27:45;;;;;;;5.20;4.70;;;19.40;99.90;;;;;;464882;254;29070;-79
2023/08/12 05:29:47;;;;;;;5.70;4.80;;;19.40;99.90;;;;;;464835;254;29074;-79
2023/08/12 05:31:48;;;;;;;5.80;5.30;;;19.40;99.90;;;;;;464876;251;28956;-80
2023/08/12 05:33:49;;;;;;;6.00;5.40;;;19.50;99.90;;;;;;464895;254;28920;-80
2023/08/12 05:35:50;;;;;;;6.67;5.30;;;19.50;99.90;;;;;;464893;254;29417;-80
2023/08/12 05:37:52;;;;;;;6.07;5.47;;;19.70;99.90;;;;;;464927;254;29401;-80
2023/08/12 05:39:53;;;;;;;5.93;5.33;;;19.90;99.90;;;;;;464898;254;29550;-80
2023/08/12 05:41:54;;;;;;;9.87;5.53;;;19.90;99.90;;;;;;464921;255;28972;-79
2023/08/12 05:43:55;;;;;;;6.23;5.40;;;20.00;99.90;;;;;;464888;253;28895;-80
2023/08/12 05:45:57;;;;;;;6.57;5.40;;;19.90;99.90;;;;;;464910;254;29018;-80
2023/08/12 05:47:58;;;;;;;5.83;5.23;;;19.90;99.90;;;;;;464916;254;29033;-79
2023/08/12 05:49:59;;;;;;;5.83;5.23;;;19.90;99.90;;;;;;464882;255;28997;-79
2023/08/12 05:52:00;;;;;;;6.20;5.03;;;19.90;99.90;;;;;;464869;254;28977;-80
2023/08/12 05:54:02;;;;;;;5.70;5.20;;;20.00;99.90;;;;;;464869;254;28986;-80
2023/08/12 05:56:03;;;;;;;6.10;5.20;;;20.00;99.90;;;;;;464893;255;29019;-80
2023/08/12 05:58:04;;;;;;;6.53;5.03;;;20.10;99.90;;;;;;464874;254;28988;-80
2023/08/12 06:00:06;;;;;;;5.50;5.00;;;20.20;99.90;;;;;;464838;254;29428;-79
2023/08/12 06:02:07;;;;;;;5.57;5.03;;;20.20;99.90;;;;;;464851;254;29428;-80
2023/08/12 06:04:08;;;;;;;7.27;4.97;;;20.20;99.90;;;;;;464871;252;29616;-79
2023/08/12 06:06:09;;;;;;;5.97;5.37;;;20.20;99.90;;;;;;464877;254;29028;-80
2023/08/12 06:08:10;;;;;;;5.80;5.20;;;20.20;99.90;;;;;;464896;254;28972;-80
2023/08/12 06:10:12;;;;;;;5.73;5.20;;;20.20;99.90;;;;;;464870;254;28979;-80
2023/08/12 06:12:13;;;;;;;5.70;5.20;;;20.30;99.90;;;;;;464851;254;28965;-80
2023/08/12 06:14:14;;;;;;;5.73;5.23;;;20.30;99.90;;;;;;464888;254;29304;-80
2023/08/12 06:16:15;;;;;;;7.10;4.57;;;20.30;99.90;;;;;;464846;254;29043;-80
2023/08/12 06:18:17;;;;;;;7.30;5.47;;;20.40;99.90;;;;;;464867;252;29054;-80
2023/08/12 06:20:18;;;;;;;5.80;5.20;;;20.50;99.90;;;;;;464859;254;28920;-80
2023/08/12 06:22:19;;;;;;;5.93;5.30;;;20.60;99.90;;;;;;464839;254;29026;-80
2023/08/12 06:24:20;;;;;;;5.67;5.13;;;20.70;99.90;;;;;;464865;254;29451;-80
2023/08/12 06:26:22;;;;;;;6.97;6.03;;;20.80;99.90;;;;;;464877;254;29561;-80
2023/08/12 06:28:23;;;;;;;6.60;5.90;;;20.80;99.90;;;;;;464868;254;29464;-80
2023/08/12 06:30:24;;;;;;;6.30;5.70;;;20.80;99.90;;;;;;464846;254;29383;-79
2023/08/12 06:32:25;;;;;;;6.20;5.60;;;20.80;99.90;;;;;;464861;254;28953;-80
2023/08/12 06:34:27;;;;;;;7.83;5.50;;;20.90;99.90;;;;;;464875;255;29073;-80
2023/08/12 06:36:28;;;;;;;6.63;5.57;;;21.00;99.90;;;;;;464865;254;28910;-81
2023/08/12 06:38:29;;;;;;;5.47;4.97;;;21.10;99.90;;;;;;464849;254;28950;-79
2023/08/12 06:40:30;;;;;;;7.03;5.63;;;21.20;99.90;;;;;;464842;254;28980;-80
2023/08/12 06:42:32;;;;;;;6.40;5.07;;;21.20;99.90;;;;;;464884;254;28996;-79
2023/08/12 06:44:33;;;;;;;5.87;5.30;;;21.30;99.90;;;;;;464867;254;29053;-80
2023/08/12 06:46:34;;;;;;;6.80;5.30;;;21.20;99.90;;;;;;464877;254;28908;-80
2023/08/12 06:48:35;;;;;;;5.30;4.83;;;21.30;99.90;;;;;;464846;254;29436;-80
2023/08/12 06:50:37;;;;;;;6.43;5.10;;;21.30;99.90;;;;;;464852;254;29466;-80
2023/08/12 06:52:38;;;;;;;5.80;5.20;;;21.40;99.90;;;;;;464877;254;29486;-80
2023/08/12 06:54:39;;;;;;;7.37;5.53;;;21.40;99.90;;;;;;464866;254;29517;-80
2023/08/12 06:56:40;;;;;;;5.50;4.80;;;21.40;99.90;;;;;;464878;254;28945;-79
2023/08/12 06:58:42;;;;;;;4.67;4.13;;;21.50;99.90;;;;;;464837;254;29036;-80
2023/08/12 07:00:43;;;;;;;5.47;4.50;;;21.60;99.90;;;;;;464850;254;29052;-80
2023/08/12 07:02:44;;;;;;;6.60;4.80;;;21.60;99.90;;;;;;464882;254;28934;-80
2023/08/12 07:04:45;;;;;;;6.60;4.90;;;21.70;99.90;;;;;;464859;254;29088;-80
2023/08/12 07:06:47;;;;;;;5.90;5.30;;;21.80;99.90;;;;;;464859;251;28932;-79
2023/08/12 07:08:48;;;;;;;5.60;4.53;;;21.90;99.90;;;;;;464850;254;29021;-80
2023/08/12 07:10:49;;;;;;;7.30;5.20;;;21.90;99.90;;;;;;464856;254;28991;-80
2023/08/12 07:12:50;;;;;;;7.70;5.33;;;21.90;99.90;;;;;;464878;254;28928;-80
2023/08/12 07:14:52;;;;;;;10.83;4.60;;;22.10;99.90;;;;;;464847;254;29455;-80
2023/08/12 07:16:53;;;;;;;6.60;5.20;;;22.10;99.90;;;;;;464848;255;29381;-81
2023/08/12 07:18:54;;;;;;;5.10;4.60;;;22.10;99.90;;;;;;464854;254;29534;-81
2023/08/12 07:20:58;;;;;;;7.20;5.20;;;22.10;99.90;;;;;;464881;255;28951;-80
2023/08/12 07:22:57;;;;;;;5.57;4.60;;;22.20;99.90;;;;;;464909;254;28923;-80
2023/08/12 07:24:59;;;;;;;5.77;4.70;;;22.20;99.90;;;;;;464886;254;29059;-81
2023/08/12 07:26:59;;;;;;;4.67;4.03;;;22.30;99.90;;;;;;464846;254;28903;-80
2023/08/12 07:29:01;;;;;;;5.53;4.73;;;22.40;99.90;;;;;;464858;254;28965;-80
2023/08/12 07:31:02;;;;;;;5.33;4.53;;;22.50;99.90;;;;;;464893;255;29312;-81
2023/08/12 07:33:03;;;;;;;8.60;4.60;;;22.60;99.90;;;;;;464898;254;28928;-81
2023/08/12 07:35:05;;;;;;;5.30;4.10;;;22.80;99.90;;;;;;464887;254;28958;-80
2023/08/12 07:37:05;;;;;;;4.20;3.80;;;23.00;99.90;;;;;;464852;254;28904;-81
2023/08/12 07:39:07;;;;;;;6.03;4.10;;;23.30;99.90;;;;;;464870;254;29401;-81
2023/08/12 07:41:08;;;;;;;5.30;4.27;;;23.30;99.90;;;;;;464882;252;29536;-81
2023/08/12 07:43:09;;;;;;;5.20;3.80;;;23.00;99.90;;;;;;464848;254;29487;-80
2023/08/12 07:45:10;;;;;;;5.23;4.30;;;22.70;99.90;;;;;;464832;256;28953;-80
2023/08/12 07:47:12;;;;;;;7.00;4.33;;;22.60;99.90;;;;;;464851;255;29038;-81
2023/08/12 07:49:13;;;;;;;4.77;4.07;;;22.60;99.90;;;;;;464872;254;28969;-80
2023/08/12 07:51:14;;;;;;;6.40;3.83;;;22.60;99.90;;;;;;464823;254;28982;-80
2023/08/12 07:53:15;;;;;;;5.27;3.70;;;22.50;99.90;;;;;;464849;255;29439;-81
2023/08/12 07:55:17;;;;;;;6.53;4.33;;;22.50;99.90;;;;;;464840;254;29564;-80
2023/08/12 07:57:20;;;;;;;7.00;4.20;;;22.60;99.90;;;;;;464840;254;30165;-80
2023/08/12 07:59:19;;;;;;;4.40;4.00;;;22.60;99.90;;;;;;464869;254;28929;-80
2023/08/12 08:01:20;;;;;;;6.37;4.33;;;22.80;99.90;;;;;;464858;256;28937;-80
2023/08/12 08:03:22;;;;;;;9.50;4.50;;;22.90;99.90;;;;;;464890;254;28969;-80
2023/08/12 08:05:23;;;;;;;5.30;4.03;;;22.90;99.90;;;;;;464857;256;29019;-80
2023/08/12 08:07:24;;;;;;;5.93;3.83;;;23.00;99.90;;;;;;464873;254;28932;-81
2023/08/12 08:09:25;;;;;;;4.50;4.10;;;23.20;99.90;;;;;;464864;254;28987;-80
2023/08/12 08:11:27;;;;;;;4.67;4.27;;;23.20;99.90;;;;;;464845;254;28973;-81
2023/08/12 08:13:28;;;;;;;6.20;4.00;;;23.10;99.90;;;;;;464839;255;28913;-80
2023/08/12 08:15:29;;;;;;;4.87;4.13;;;22.90;99.90;;;;;;464825;254;29038;-80
2023/08/12 08:17:30;;;;;;;6.70;3.90;;;23.00;99.90;;;;;;464854;254;29595;-80
2023/08/12 08:19:32;;;;;;;9.27;4.50;;;23.20;99.90;;;;;;464875;254;29423;-81
2023/08/12 08:21:33;;;;;;;4.10;3.43;;;23.40;99.90;;;;;;464875;254;29567;-80
2023/08/12 08:23:34;;;;;;;4.30;3.50;;;23.60;99.90;;;;;;464848;256;29008;-80
2023/08/12 08:25:35;;;;;;;4.30;3.90;;;23.60;99.90;;;;;;464829;254;28940;-81
2023/08/12 08:27:37;;;;;;;5.97;4.40;;;23.60;99.90;;;;;;464875;254;28980;-81
2023/08/12 08:29:38;;;;;;;4.13;3.73;;;23.60;99.90;;;;;;464883;254;28979;-80
2023/08/12 08:31:39;;;;;;;5.33;4.00;;;23.60;99.90;;;;;;464839;254;28970;-80
2023/08/12 08:33:40;;;;;;;4.30;3.90;;;23.50;99.90;;;;;;464847;254;28929;-81
2023/08/12 08:35:42;;;;;;;5.07;3.50;;;23.50;99.90;;;;;;464848;254;28999;-80
2023/08/12 08:37:43;;;;;;;4.60;4.10;;;23.50;99.90;;;;;;464862;254;29197;-81
2023/08/12 08:39:44;;;;;;;6.97;4.63;;;23.50;99.90;;;;;;464867;254;29007;-80
2023/08/12 08:41:45;;;;;;;5.87;4.60;;;23.50;99.90;;;;;;464853;254;29579;-80
2023/08/12 08:43:47;;;;;;;5.63;3.90;;;23.50;99.90;;;;;;464837;254;29367;-80
2023/08/12 08:45:48;;;;;;;5.20;4.17;;;23.40;99.90;;;;;;464855;254;29420;-81
2023/08/12 08:47:49;;;;;;;6.13;4.70;;;23.40;99.90;;;;;;464859;254;29042;-80
2023/08/12 08:49:51;;;;;;;4.90;4.10;;;23.50;99.90;;;;;;464851;255;28932;-81
2023/08/12 08:51:52;;;;;;;6.83;4.33;;;23.50;99.90;;;;;;464828;251;29130;-80
2023/08/12 08:53:53;;;;;;;4.57;3.90;;;23.50;99.90;;;;;;464837;254;29016;-80
2023/08/12 08:55:54;;;;;;;6.90;4.30;;;23.60;99.90;;;;;;464844;254;28935;-80
2023/08/12 08:57:56;;;;;;;7.47;4.17;;;23.80;99.90;;;;;;464862;254;28991;-80
2023/08/12 08:59:57;;;;;;;5.40;4.43;;;23.90;99.90;;;;;;464848;254;28922;-81
2023/08/12 09:01:58;;;;;;;6.00;4.10;;;24.10;99.90;;;;;;464857;254;28956;-81
2023/08/12 09:03:59;;;;;;;6.30;3.73;;;24.30;99.90;;;;;;464861;251;28955;-81
2023/08/12 09:06:01;;;;;;;5.47;4.07;;;24.30;99.90;;;;;;464863;254;29373;-81
2023/08/12 09:08:02;;;;;;;4.77;3.90;;;24.30;99.90;;;;;;464839;254;29436;-81
2023/08/12 09:10:03;;;;;;;4.83;3.90;;;24.50;99.90;;;;;;464835;254;29381;-81
2023/08/12 09:12:06;;;;;;;7.97;4.20;;;24.60;99.90;;;;;;464807;256;29066;-81
2023/08/12 09:14:06;;;;;;;4.63;4.00;;;24.80;99.90;;;;;;464878;253;29019;-81
2023/08/12 09:16:07;;;;;;;4.30;3.90;;;24.80;99.90;;;;;;464900;254;28936;-80
2023/08/12 09:18:09;;;;;;;5.63;4.03;;;24.90;99.90;;;;;;464883;254;28972;-81
2023/08/12 09:20:11;;;;;;;6.50;4.20;;;25.10;99.90;;;;;;464849;255;29064;-80
2023/08/12 09:22:11;;;;;;;4.80;4.30;;;25.20;99.90;;;;;;464851;254;29356;-80
2023/08/12 09:24:12;;;;;;;5.30;4.60;;;25.00;99.90;;;;;;464910;254;29367;-81
2023/08/12 09:26:13;;;;;;;4.33;3.93;;;24.70;99.90;;;;;;464905;254;28937;-80
2023/08/12 09:28:15;;;;;;;7.53;4.13;;;24.60;99.90;;;;;;464892;254;28964;-81
2023/08/12 09:30:16;;;;;;;4.70;3.93;;;24.60;99.90;;;;;;464886;254;29379;-81
2023/08/12 09:32:17;;;;;;;6.87;4.00;;;24.70;99.90;;;;;;464866;254;29562;-82
2023/08/12 09:34:18;;;;;;;5.77;3.83;;;25.10;99.90;;;;;;464896;254;29470;-82
2023/08/12 09:36:19;;;;;;;7.70;3.90;;;25.40;99.90;;;;;;464867;256;29394;-81
2023/08/12 09:38:21;;;;;;;6.67;4.77;;;25.30;99.90;;;;;;464870;254;28957;-80
2023/08/12 09:40:22;;;;;;;7.65;4.07;;;24.90;99.90;;;;;;462640;254;36609;-80
2023/08/12 09:42:23;;;;;;;6.97;4.17;;;24.70;99.90;;;;;;464854;254;27578;-80
2023/08/12 09:44:24;;;;;;;4.37;3.90;;;24.60;99.90;;;;;;464882;252;29327;-81
2023/08/12 09:46:26;;;;;;;5.57;4.30;;;24.50;99.90;;;;;;464916;254;29004;-80
2023/08/12 09:48:27;;;;;;;10.17;4.40;;;24.20;99.90;;;;;;464858;254;29041;-80
2023/08/12 09:50:28;;;;;;;11.13;4.73;;;24.00;99.90;;;;;;464861;254;29061;-81
2023/08/12 09:52:29;;;;;;;6.90;5.33;;;23.70;99.90;;;;;;464863;254;29471;-80
2023/08/12 09:54:31;;;;;;;7.50;4.40;;;23.40;99.90;;;;;;464883;253;29472;-81
2023/08/12 09:56:32;;;;;;;12.13;5.70;;;23.30;99.90;;;;;;464870;254;29558;-80
2023/08/12 09:58:33;;;;;;;12.50;5.40;;;23.00;99.90;;;;;;464861;254;28960;-80
2023/08/12 10:00:34;;;;;;;7.80;4.67;;;22.80;99.90;;;;;;464849;254;28907;-80
2023/08/12 10:02:36;;;;;;;5.63;5.13;;;22.40;99.90;;;;;;464858;254;28980;-80
2023/08/12 10:04:37;;;;;;;5.20;4.70;;;22.10;99.90;;;;;;464890;254;28944;-80
2023/08/12 10:06:38;;;;;;;7.00;5.40;;;21.90;99.90;;;;;;464865;254;28967;-80
2023/08/12 10:08:39;;;;;;;5.47;4.67;;;21.90;99.90;;;;;;464890;254;28997;-80
2023/08/12 10:10:41;;;;;;;7.20;4.27;;;22.10;99.90;;;;;;464868;254;28941;-80
2023/08/12 10:12:42;;;;;;;4.73;4.33;;;22.10;99.90;;;;;;464873;254;29074;-80
2023/08/12 10:14:43;;;;;;;5.87;5.00;;;22.00;99.90;;;;;;464880;254;28960;-80
2023/08/12 10:16:44;;;;;;;5.10;3.90;;;21.80;99.90;;;;;;464857;251;29365;-80
2023/08/12 10:18:46;;;;;;;6.93;4.87;;;21.60;99.90;;;;;;464861;254;29430;-80
2023/08/12 10:20:47;;;;;;;4.90;4.20;;;21.60;99.90;;;;;;464853;254;29346;-80
2023/08/12 10:22:48;;;;;;;4.63;4.23;;;21.90;99.90;;;;;;464876;254;29031;-80
2023/08/12 10:24:49;;;;;;;4.40;3.90;;;22.00;99.90;;;;;;464870;255;28957;-79
2023/08/12 10:26:51;;;;;;;8.80;5.00;;;22.00;99.90;;;;;;464874;254;28923;-79
2023/08/12 10:28:52;;;;;;;4.63;4.10;;;21.80;99.90;;;;;;464879;254;29010;-80